Ana Sayfa
METAR-TAF:

METAR-TAF

Havaalanları :

Joplin Regional Airport

Joplin, Missouri, Amerika Birleşik Devletleri

Enlem: 37-09-22N, Boylam: 094-30-02W, yükseklik: 299 m

Güncel hava durumu gözlemi

Rapor saat 14:53 UTC de 1 saat ve 3 dakika önce yapıldı.
Sakin rüzgar
Sıcaklık 24°C
Nem 69%
Basınç 1012 hPa
Görüş mesafesi: 16.1 km
Açık gökyüzü

METAR: KJLN 181453Z 00000KT 10SM CLR 24/18 A2989 RMK AO2 SLP111 T02440178 51014

Saat: 10:56 (15:56 UTC)

Tahmin

Rapor saat 11:20 UTC de 4 saat ve 36 dakika önce yapıldı.
Ayın 18'si saat 12 UTC'den ayın 19'si saat 12 UTC'ye kadar geçerli Tahmin
Rüzgar güneydan 4 kt
Görüş mesafesi: 10 km
25000 ft yükseklikte az bulutlu
Ayın 18'si saat 1700 UTC'den
Rüzgar batı/güneybatıdan 4 kt
Görüş mesafesi: 10 km
Açık gökyüzü

TAF: KJLN 181120Z 1812/1912 19004KT P6SM FEW250 FM181700 25004KT P6SM SKC

4.000'den fazla havaalanı için hava durumu gözlemleri ve tahminleri (METAR ve TAF raporları).

Kullanılabilir istasyonlar harita üzerinde sarı ve kırmızı noktalarla gösterilir.

İstasyonun adını görmek için fareyi noktanın üzerinde gezdirin.

Sonrasında hava gözlem ve tahminlerini görmek için tıklayın.

Haritayı değiştirmek için: yaklaştırmak için siyah artı işaretli yeşil düğmeye ve uzaklaştırmak için de eksi işaretli düğmeye hızla tıklayın; bitişik haritalar için yeşil okları kullanın.


METAR-TAF: